Time;durP1;ratioP1;P1;durP2;ratioP2;P2;SDS_P1;SDS_P2;PMS_P1;PMS_P2;Temp;Humidity;BMP_temperature;BMP_pressure;BME280_temperature;BME280_humidity;BME280_pressure;Samples;Min_cycle;Max_cycle;Signal;HPM_P1;HPM_P2
2024/01/17 00:00:50;;;;;;;18.55;12.00;;;20.20;99.90;;;;;;5018615;28;20041;-52
2024/01/17 00:03:16;;;;;;;16.98;11.88;;;20.20;99.90;;;;;;5018804;28;20478;-52
2024/01/17 00:05:41;;;;;;;16.50;11.05;;;20.20;99.90;;;;;;5018702;28;20030;-53
2024/01/17 00:08:09;;;;;;;16.80;10.98;;;20.20;99.90;;;;;;5018616;28;20034;-54
2024/01/17 00:10:35;;;;;;;18.60;11.63;;;20.20;99.90;;;;;;5017296;28;20022;-52
2024/01/17 00:13:02;;;;;;;16.60;10.32;;;20.20;99.90;;;;;;5018541;28;20030;-52
2024/01/17 00:15:28;;;;;;;15.57;10.27;;;20.20;99.90;;;;;;5018581;28;20386;-52
2024/01/17 00:17:54;;;;;;;17.25;11.25;;;20.20;99.90;;;;;;5018403;28;20079;-52
2024/01/17 00:20:19;;;;;;;16.25;10.25;;;20.20;99.90;;;;;;5018544;28;20398;-52
2024/01/17 00:22:45;;;;;;;15.07;10.38;;;20.20;99.90;;;;;;5018209;28;20026;-52
2024/01/17 00:25:11;;;;;;;16.42;11.13;;;20.20;99.90;;;;;;5018174;28;20464;-52
2024/01/17 00:27:38;;;;;;;19.27;11.43;;;20.20;99.90;;;;;;5016805;28;20041;-52
2024/01/17 00:30:04;;;;;;;15.00;10.93;;;20.20;99.90;;;;;;5018238;28;20030;-52
2024/01/17 00:32:34;;;;;;;16.15;11.70;;;20.20;99.90;;;;;;5018332;28;20500;-52
2024/01/17 00:35:00;;;;;;;15.82;11.00;;;20.20;99.90;;;;;;5018302;28;20028;-53
2024/01/17 00:37:26;;;;;;;15.95;10.88;;;20.20;99.90;;;;;;5018163;28;20101;-53
2024/01/17 00:39:51;;;;;;;14.90;9.95;;;20.20;99.90;;;;;;5018243;28;20097;-53
2024/01/17 00:42:17;;;;;;;16.38;11.00;;;20.20;99.90;;;;;;5018431;28;20053;-53
2024/01/17 00:44:43;;;;;;;16.98;11.05;;;20.20;99.90;;;;;;5018182;28;20029;-53
2024/01/17 00:47:09;;;;;;;16.30;10.82;;;20.20;99.90;;;;;;5015881;28;20033;-53
2024/01/17 00:49:39;;;;;;;16.80;11.05;;;20.20;99.90;;;;;;5014884;28;20046;-53
2024/01/17 00:52:05;;;;;;;16.35;10.40;;;20.20;99.90;;;;;;5013630;28;20029;-53
2024/01/17 00:54:31;;;;;;;16.15;11.00;;;20.20;99.90;;;;;;5015066;28;20030;-53
2024/01/17 00:56:58;;;;;;;17.23;10.90;;;20.20;99.90;;;;;;5015071;28;20065;-53
2024/01/17 00:59:24;;;;;;;19.40;11.10;;;20.20;99.90;;;;;;5013498;28;20029;-53
2024/01/17 01:01:49;;;;;;;15.90;10.75;;;20.20;99.90;;;;;;5013989;28;20382;-53
2024/01/17 01:04:15;;;;;;;16.20;10.85;;;20.20;99.90;;;;;;5014567;28;20083;-53
2024/01/17 01:06:41;;;;;;;17.02;11.57;;;20.10;99.90;;;;;;5014541;28;20033;-52
2024/01/17 01:09:07;;;;;;;18.13;11.57;;;20.20;99.90;;;;;;5013282;28;20208;-52
2024/01/17 01:11:33;;;;;;;15.07;10.88;;;20.20;99.90;;;;;;5014506;28;20018;-52
2024/01/17 01:13:59;;;;;;;14.23;9.75;;;20.20;99.90;;;;;;5013115;28;20113;-52
2024/01/17 01:16:25;;;;;;;17.05;10.85;;;20.10;99.90;;;;;;5014580;28;20160;-52
2024/01/17 01:18:51;;;;;;;15.95;10.55;;;20.10;99.90;;;;;;5014676;28;20526;-55
2024/01/17 01:21:17;;;;;;;15.57;10.02;;;20.10;99.90;;;;;;5014407;28;20145;-55
2024/01/17 01:23:43;;;;;;;18.67;11.88;;;20.10;99.90;;;;;;5014465;28;20049;-54
2024/01/17 01:26:09;;;;;;;13.98;10.00;;;20.10;99.90;;;;;;5014294;28;20419;-54
2024/01/17 01:28:35;;;;;;;15.38;10.93;;;20.10;99.90;;;;;;5014160;28;20084;-53
2024/01/17 01:31:01;;;;;;;15.38;10.45;;;20.10;99.90;;;;;;5014107;28;20413;-53
2024/01/17 01:33:26;;;;;;;17.95;11.32;;;20.10;99.90;;;;;;5014207;28;20088;-53
2024/01/17 01:35:52;;;;;;;17.48;10.90;;;20.10;99.90;;;;;;5014323;28;20076;-53
2024/01/17 01:38:18;;;;;;;18.13;11.45;;;20.10;99.90;;;;;;5013993;28;20382;-53
2024/01/17 01:40:44;;;;;;;16.60;11.60;;;20.10;99.90;;;;;;5013953;28;20022;-53
2024/01/17 01:43:23;;;;;;;16.30;11.00;;;20.10;99.90;;;;;;5014072;28;20021;-53
2024/01/17 01:46:26;;;;;;;17.27;10.98;;;20.10;99.90;;;;;;5013794;28;20377;-53
2024/01/17 01:48:53;;;;;;;18.00;11.13;;;20.10;99.90;;;;;;4973582;28;20054;-52
2024/01/17 01:51:20;;;;;;;17.83;10.55;;;20.10;99.90;;;;;;5013864;28;20026;-53
2024/01/17 01:53:52;;;;;;;17.23;10.85;;;20.10;99.90;;;;;;5013971;28;20401;-52
2024/01/17 01:56:22;;;;;;;15.02;10.77;;;20.10;99.90;;;;;;5013894;28;20494;-52
2024/01/17 01:58:51;;;;;;;16.98;10.75;;;20.00;99.90;;;;;;5013302;28;20455;-52
2024/01/17 02:01:17;;;;;;;15.45;10.98;;;20.10;99.90;;;;;;5014230;28;20291;-52
2024/01/17 02:03:44;;;;;;;15.30;10.52;;;20.10;99.90;;;;;;5013830;28;20033;-52
2024/01/17 02:06:14;;;;;;;16.75;10.38;;;20.10;99.90;;;;;;5013846;28;20415;-52
2024/01/17 02:08:40;;;;;;;16.08;10.52;;;20.10;99.90;;;;;;5013822;28;20072;-53
2024/01/17 02:11:07;;;;;;;17.52;11.18;;;20.10;99.90;;;;;;5013604;28;20018;-52
2024/01/17 02:13:33;;;;;;;18.15;10.98;;;20.00;99.90;;;;;;5013693;28;20032;-53
2024/01/17 02:16:00;;;;;;;15.18;10.73;;;20.00;99.90;;;;;;5012515;28;20022;-52
2024/01/17 02:18:26;;;;;;;15.00;10.95;;;20.00;99.90;;;;;;5013796;28;20097;-53
2024/01/17 02:20:52;;;;;;;16.52;11.05;;;20.00;99.90;;;;;;5013649;28;20505;-53
2024/01/17 02:23:23;;;;;;;15.00;10.45;;;20.00;99.90;;;;;;5013487;28;20034;-55
2024/01/17 02:25:52;;;;;;;18.60;10.50;;;20.00;99.90;;;;;;5013493;28;20022;-54
2024/01/17 02:28:18;;;;;;;16.27;10.38;;;20.00;99.90;;;;;;5013340;28;20037;-55
2024/01/17 02:30:45;;;;;;;15.30;10.40;;;20.00;99.90;;;;;;5001606;28;20024;-52
2024/01/17 02:33:13;;;;;;;15.50;10.27;;;20.00;99.90;;;;;;4995850;28;20029;-52
2024/01/17 02:35:39;;;;;;;16.20;10.07;;;20.00;99.90;;;;;;5012176;28;20076;-53
2024/01/17 02:38:05;;;;;;;15.93;10.50;;;20.00;99.90;;;;;;5012608;28;20022;-54
2024/01/17 02:40:30;;;;;;;15.52;10.38;;;20.00;99.90;;;;;;5012621;28;20045;-54
2024/01/17 02:42:56;;;;;;;13.93;10.02;;;20.00;99.90;;;;;;5013014;28;20072;-53
2024/01/17 02:45:22;;;;;;;23.65;11.10;;;20.00;99.90;;;;;;5012502;28;20378;-53
2024/01/17 02:47:48;;;;;;;16.63;9.30;;;20.00;99.90;;;;;;5012524;28;20104;-54
2024/01/17 02:50:15;;;;;;;19.63;10.70;;;20.00;99.90;;;;;;5012731;28;20378;-54
2024/01/17 02:52:47;;;;;;;17.23;10.43;;;20.00;99.90;;;;;;5011178;28;20060;-54
2024/01/17 02:55:15;;;;;;;18.52;10.82;;;20.00;99.90;;;;;;5012752;28;20253;-53
2024/01/17 02:57:41;;;;;;;15.27;10.57;;;20.00;99.90;;;;;;5012476;28;20022;-53
2024/01/17 03:00:09;;;;;;;14.30;9.40;;;20.00;99.90;;;;;;5013123;28;20540;-54
2024/01/17 03:02:37;;;;;;;14.27;9.00;;;20.00;99.90;;;;;;5012330;28;20077;-56
2024/01/17 03:05:05;;;;;;;16.20;9.30;;;20.00;99.90;;;;;;5012605;28;20029;-56
2024/01/17 03:07:31;;;;;;;;;;;20.00;99.90;;;;;;5012655;28;20037;-54
2024/01/17 03:09:57;;;;;;;15.98;9.73;;;20.00;99.90;;;;;;5011539;28;19909;-53
2024/01/17 03:12:22;;;;;;;15.73;10.40;;;20.10;99.90;;;;;;5012563;28;20083;-54
2024/01/17 03:14:48;;;;;;;15.57;10.30;;;20.10;99.90;;;;;;5010866;28;20052;-53
2024/01/17 03:17:15;;;;;;;14.15;9.25;;;20.00;99.90;;;;;;5011943;28;20025;-55
2024/01/17 03:19:45;;;;;;;14.18;9.55;;;20.10;99.90;;;;;;5012394;28;20533;-55
2024/01/17 03:22:17;;;;;;;14.57;9.93;;;20.00;99.90;;;;;;5012223;28;20041;-54
2024/01/17 03:24:46;;;;;;;14.30;9.85;;;20.10;99.90;;;;;;5012129;28;20470;-55
2024/01/17 03:27:13;;;;;;;15.70;9.75;;;20.10;99.90;;;;;;5006498;28;20121;-55
2024/01/17 03:29:39;;;;;;;14.10;9.18;;;20.10;99.90;;;;;;5003233;28;20022;-54
2024/01/17 03:32:05;;;;;;;12.57;8.85;;;20.00;99.90;;;;;;4993582;28;20038;-54
2024/01/17 03:34:31;;;;;;;15.95;9.38;;;20.00;99.90;;;;;;5009738;28;20033;-54
2024/01/17 03:36:56;;;;;;;15.68;10.20;;;20.00;99.90;;;;;;4999661;28;20037;-54
2024/01/17 03:39:22;;;;;;;14.18;9.30;;;20.00;99.90;;;;;;5011041;28;20030;-54
2024/01/17 03:41:48;;;;;;;15.20;9.00;;;20.00;99.90;;;;;;5011104;28;20036;-54
2024/01/17 03:44:14;;;;;;;18.52;9.73;;;20.00;99.90;;;;;;5010733;28;20390;-54
2024/01/17 03:46:40;;;;;;;13.63;9.38;;;20.00;99.90;;;;;;4996833;28;20026;-54
2024/01/17 03:49:06;;;;;;;13.30;9.52;;;20.00;99.90;;;;;;4991911;28;20034;-54
2024/01/17 03:51:31;;;;;;;14.27;8.73;;;20.00;99.90;;;;;;4991053;28;20030;-54
2024/01/17 03:53:57;;;;;;;15.27;10.23;;;20.00;99.90;;;;;;4992183;28;20027;-54
2024/01/17 03:56:23;;;;;;;15.23;9.65;;;20.00;99.90;;;;;;4991754;28;20062;-54
2024/01/17 03:58:49;;;;;;;13.88;8.43;;;20.00;99.90;;;;;;4992491;28;20467;-54
2024/01/17 04:01:15;;;;;;;15.65;8.93;;;20.00;99.90;;;;;;4993320;28;20049;-54
2024/01/17 04:03:41;;;;;;;13.98;9.20;;;20.00;99.90;;;;;;5007661;28;20392;-54
2024/01/17 04:06:07;;;;;;;14.55;9.13;;;20.00;99.90;;;;;;4992612;28;20102;-55
2024/01/17 04:08:33;;;;;;;14.23;8.75;;;19.90;99.90;;;;;;4992602;28;20045;-54
2024/01/17 04:10:59;;;;;;;16.25;10.38;;;19.90;99.90;;;;;;4992435;28;20019;-54
2024/01/17 04:13:25;;;;;;;15.32;9.30;;;19.90;99.90;;;;;;4992527;28;20032;-55
2024/01/17 04:15:51;;;;;;;16.48;9.70;;;20.00;99.90;;;;;;4992501;28;20019;-54
2024/01/17 04:18:16;;;;;;;13.98;9.07;;;19.90;99.90;;;;;;4991331;28;20019;-55
2024/01/17 04:20:43;;;;;;;16.02;10.20;;;19.90;99.90;;;;;;4992893;28;20030;-55
2024/01/17 04:23:08;;;;;;;15.68;9.80;;;19.90;99.90;;;;;;4996153;28;20030;-55
2024/01/17 04:25:35;;;;;;;15.90;8.95;;;19.90;99.90;;;;;;4996136;28;20555;-55
2024/01/17 04:28:07;;;;;;;18.10;9.40;;;19.90;99.90;;;;;;4995882;28;20501;-54
2024/01/17 04:30:33;;;;;;;16.42;9.20;;;19.90;99.90;;;;;;4994713;28;20023;-54
2024/01/17 04:33:00;;;;;;;15.48;9.10;;;19.90;99.90;;;;;;4996046;28;20026;-54
2024/01/17 04:35:26;;;;;;;14.07;8.85;;;19.90;99.90;;;;;;4995954;28;20109;-54
2024/01/17 04:37:53;;;;;;;17.50;9.35;;;19.90;99.90;;;;;;4994677;28;20462;-55
2024/01/17 04:40:18;;;;;;;16.42;9.52;;;19.90;99.90;;;;;;4995957;28;20033;-55
2024/01/17 04:42:48;;;;;;;12.52;8.88;;;19.90;99.90;;;;;;4995809;28;20127;-54
2024/01/17 04:45:17;;;;;;;14.80;9.25;;;19.90;99.90;;;;;;4995773;28;20355;-54
2024/01/17 04:47:43;;;;;;;19.42;9.00;;;19.90;99.90;;;;;;4995579;28;20030;-54
2024/01/17 04:50:13;;;;;;;14.35;9.77;;;19.90;99.90;;;;;;4995794;28;20022;-54
2024/01/17 04:52:39;;;;;;;15.63;10.05;;;19.90;99.90;;;;;;4995543;28;20514;-54
2024/01/17 04:55:07;;;;;;;17.13;8.17;;;19.90;99.90;;;;;;4995683;28;20014;-54
2024/01/17 04:57:34;;;;;;;18.63;9.13;;;19.90;99.90;;;;;;4995661;28;20387;-54
2024/01/17 04:59:59;;;;;;;12.45;8.48;;;19.90;99.90;;;;;;4995550;28;20112;-55
2024/01/17 05:02:25;;;;;;;18.35;10.07;;;19.90;99.90;;;;;;4995806;28;20109;-55
2024/01/17 05:04:51;;;;;;;18.17;8.93;;;19.90;99.90;;;;;;4995538;28;20018;-54
2024/01/17 05:07:17;;;;;;;20.58;9.10;;;19.90;99.90;;;;;;4995540;28;20042;-55
2024/01/17 05:09:42;;;;;;;13.93;8.68;;;19.90;99.90;;;;;;5010468;28;20026;-55
2024/01/17 05:12:08;;;;;;;16.83;9.15;;;19.90;99.90;;;;;;4993972;28;20034;-55
2024/01/17 05:14:34;;;;;;;15.18;8.88;;;19.90;99.90;;;;;;4995101;28;20109;-54
2024/01/17 05:17:01;;;;;;;12.60;8.65;;;19.90;99.90;;;;;;4995185;28;20093;-55
2024/01/17 05:19:26;;;;;;;16.35;9.63;;;19.90;99.90;;;;;;4995153;28;20026;-55
2024/01/17 05:21:52;;;;;;;14.20;8.57;;;19.90;99.90;;;;;;4995326;28;20022;-55
2024/01/17 05:24:18;;;;;;;13.88;8.23;;;19.90;99.90;;;;;;4995363;28;20088;-55
2024/01/17 05:26:46;;;;;;;13.90;8.40;;;19.90;99.90;;;;;;4994932;28;20113;-55
2024/01/17 05:29:11;;;;;;;15.93;9.13;;;19.90;99.90;;;;;;4993607;28;20114;-55
2024/01/17 05:31:37;;;;;;;20.02;8.95;;;19.80;99.90;;;;;;4994895;28;20102;-55
2024/01/17 05:34:03;;;;;;;13.63;8.77;;;19.80;99.90;;;;;;4994103;28;20038;-55
2024/01/17 05:36:29;;;;;;;17.48;8.63;;;19.80;99.90;;;;;;4994830;28;20022;-55
2024/01/17 05:38:55;;;;;;;13.82;8.75;;;19.90;99.90;;;;;;4994843;28;20030;-55
2024/01/17 05:41:20;;;;;;;16.80;9.15;;;19.80;99.90;;;;;;4994890;28;20053;-56
2024/01/17 05:43:46;;;;;;;14.85;8.35;;;19.80;99.90;;;;;;4994644;28;20029;-56
2024/01/17 05:46:12;;;;;;;14.40;8.52;;;19.80;99.90;;;;;;4994601;28;20026;-56
2024/01/17 05:48:39;;;;;;;13.43;8.20;;;19.80;99.90;;;;;;4994566;28;20038;-56
2024/01/17 05:51:05;;;;;;;15.25;8.10;;;19.80;99.90;;;;;;4994551;28;20019;-55
2024/01/17 05:53:31;;;;;;;15.68;8.88;;;19.80;99.90;;;;;;4994546;28;20128;-56
2024/01/17 05:55:57;;;;;;;14.43;8.43;;;19.80;99.90;;;;;;4994498;28;20490;-56
2024/01/17 05:58:23;;;;;;;15.52;8.02;;;19.80;99.90;;;;;;4994662;28;20026;-56
2024/01/17 06:00:49;;;;;;;15.73;8.60;;;19.80;99.90;;;;;;4993275;28;20029;-55
2024/01/17 06:03:15;;;;;;;13.63;7.55;;;19.80;99.90;;;;;;4994167;28;20042;-55
2024/01/17 06:05:41;;;;;;;14.23;8.13;;;19.80;99.90;;;;;;4993799;28;20030;-55
2024/01/17 06:08:06;;;;;;;13.32;8.15;;;19.80;99.90;;;;;;4992775;28;20044;-55
2024/01/17 06:10:33;;;;;;;20.10;9.10;;;19.80;99.90;;;;;;4993218;28;20031;-55
2024/01/17 06:12:58;;;;;;;16.63;8.23;;;19.80;99.90;;;;;;4994188;28;20018;-55
2024/01/17 06:15:24;;;;;;;13.65;8.90;;;19.80;99.90;;;;;;4994266;28;20055;-55
2024/01/17 06:17:50;;;;;;;16.70;8.85;;;19.80;99.90;;;;;;4994191;28;20038;-54
2024/01/17 06:20:16;;;;;;;17.02;9.40;;;19.70;99.90;;;;;;4993927;28;20080;-54
2024/01/17 06:22:42;;;;;;;13.95;7.47;;;19.80;99.90;;;;;;4993998;28;20498;-54
2024/01/17 06:25:08;;;;;;;13.07;7.80;;;19.80;99.90;;;;;;4993894;28;20030;-53
2024/01/17 06:27:34;;;;;;;10.88;7.20;;;19.80;99.90;;;;;;4993687;28;20030;-53
2024/01/17 06:30:00;;;;;;;18.20;8.73;;;19.80;99.90;;;;;;4992434;28;20113;-53
2024/01/17 06:32:26;;;;;;;11.30;7.05;;;19.80;99.90;;;;;;4994030;28;20050;-54
2024/01/17 06:34:51;;;;;;;17.40;8.68;;;19.80;99.90;;;;;;4992561;28;20030;-53
2024/01/17 06:37:17;;;;;;;18.50;8.52;;;19.80;99.90;;;;;;4993593;28;20097;-54
2024/01/17 06:39:45;;;;;;;12.88;6.78;;;19.70;99.90;;;;;;4993517;28;20030;-53
2024/01/17 06:42:11;;;;;;;14.32;7.05;;;19.80;99.90;;;;;;4993426;28;20505;-53
2024/01/17 06:44:37;;;;;;;13.93;8.23;;;19.80;99.90;;;;;;4993538;28;20034;-52
2024/01/17 06:47:06;;;;;;;18.95;7.88;;;19.80;99.90;;;;;;4993520;28;20173;-54
2024/01/17 06:49:32;;;;;;;19.75;9.10;;;19.80;99.90;;;;;;4994350;28;20030;-53
2024/01/17 06:51:58;;;;;;;14.88;7.70;;;19.80;99.90;;;;;;4993802;28;20434;-54
2024/01/17 06:54:23;;;;;;;14.60;7.53;;;19.80;99.90;;;;;;4996516;28;20030;-53
2024/01/17 06:56:49;;;;;;;16.73;7.80;;;19.70;99.90;;;;;;5000169;28;20088;-53
2024/01/17 06:59:16;;;;;;;16.35;7.57;;;19.70;99.90;;;;;;5012247;28;20105;-53
2024/01/17 07:01:42;;;;;;;15.77;8.10;;;19.70;99.90;;;;;;5011431;28;20129;-53
2024/01/17 07:04:08;;;;;;;13.85;6.88;;;19.70;99.90;;;;;;5011919;28;20097;-53
2024/01/17 07:06:34;;;;;;;11.77;7.78;;;19.70;99.90;;;;;;5011632;28;20033;-53
2024/01/17 07:09:01;;;;;;;14.70;7.85;;;19.70;99.90;;;;;;5012711;28;20026;-54
2024/01/17 07:11:26;;;;;;;15.80;8.23;;;19.70;99.90;;;;;;5013154;28;20377;-54
2024/01/17 07:13:52;;;;;;;13.85;7.82;;;19.70;99.90;;;;;;5012691;28;20212;-53
2024/01/17 07:16:18;;;;;;;16.70;8.02;;;19.70;99.90;;;;;;5012640;28;20435;-54
2024/01/17 07:18:44;;;;;;;13.82;7.38;;;19.70;99.90;;;;;;5012740;28;20105;-54
2024/01/17 07:21:10;;;;;;;13.30;7.68;;;19.70;99.90;;;;;;5012548;28;20490;-54
2024/01/17 07:23:38;;;;;;;14.35;7.15;;;19.70;99.90;;;;;;5012571;28;20386;-54
2024/01/17 07:26:04;;;;;;;;;;;19.70;99.90;;;;;;5012926;28;20025;-54
2024/01/17 07:28:30;;;;;;;14.75;7.93;;;19.70;99.90;;;;;;5012433;28;19914;-54
2024/01/17 07:30:56;;;;;;;14.52;7.90;;;19.70;99.90;;;;;;5012744;28;20022;-53
2024/01/17 07:33:21;;;;;;;14.60;7.32;;;19.60;99.90;;;;;;5012491;28;20041;-53
2024/01/17 07:35:47;;;;;;;14.48;8.48;;;19.60;99.90;;;;;;5012465;28;20025;-54
2024/01/17 07:38:14;;;;;;;14.65;7.15;;;19.60;99.90;;;;;;5012355;28;20022;-53
2024/01/17 07:40:41;;;;;;;12.77;7.07;;;19.60;99.90;;;;;;5012501;28;20033;-54
2024/01/17 07:43:07;;;;;;;14.85;7.55;;;19.60;99.90;;;;;;5012509;28;20022;-53
2024/01/17 07:45:33;;;;;;;14.48;7.70;;;19.60;99.90;;;;;;5012499;28;20026;-55
2024/01/17 07:47:59;;;;;;;14.25;8.57;;;19.60;99.90;;;;;;5012450;28;20077;-54
2024/01/17 07:50:24;;;;;;;13.85;7.53;;;19.60;99.90;;;;;;5011176;28;20121;-56
2024/01/17 07:52:50;;;;;;;14.90;8.32;;;19.60;99.90;;;;;;5012164;28;20115;-54
2024/01/17 07:55:16;;;;;;;12.63;7.15;;;19.60;99.90;;;;;;5012256;28;20026;-54
2024/01/17 07:57:42;;;;;;;13.75;8.27;;;19.60;99.90;;;;;;5015651;28;20064;-54
2024/01/17 08:00:08;;;;;;;12.35;7.80;;;19.60;99.90;;;;;;5016234;28;20054;-54
2024/01/17 08:02:34;;;;;;;18.67;8.15;;;19.60;99.90;;;;;;5016124;28;20450;-56
2024/01/17 08:05:00;;;;;;;15.15;7.57;;;19.60;99.90;;;;;;5016329;28;20097;-54
2024/01/17 08:07:26;;;;;;;20.40;8.38;;;19.60;99.90;;;;;;5016280;28;20100;-54
2024/01/17 08:09:52;;;;;;;17.92;8.35;;;19.60;99.90;;;;;;5014866;28;20033;-54
2024/01/17 08:12:19;;;;;;;14.05;8.35;;;19.60;99.90;;;;;;5016083;28;20026;-54
2024/01/17 08:14:45;;;;;;;15.25;9.10;;;19.60;99.90;;;;;;5015935;28;20466;-54
2024/01/17 08:17:11;;;;;;;17.20;8.00;;;19.50;99.90;;;;;;5015907;28;20105;-55
2024/01/17 08:19:37;;;;;;;14.45;8.15;;;19.60;99.90;;;;;;5016022;28;20113;-55
2024/01/17 08:22:04;;;;;;;16.15;8.40;;;19.50;99.90;;;;;;5015791;28;20057;-55
2024/01/17 08:24:30;;;;;;;17.08;8.52;;;19.50;99.90;;;;;;5015917;28;20025;-54
2024/01/17 08:26:56;;;;;;;16.60;8.30;;;19.50;99.90;;;;;;5015616;28;20064;-54
2024/01/17 08:29:22;;;;;;;13.52;8.00;;;19.50;99.90;;;;;;5015849;28;20450;-54
2024/01/17 08:31:49;;;;;;;16.70;9.20;;;19.50;99.90;;;;;;5015879;28;20069;-55
2024/01/17 08:34:15;;;;;;;16.05;8.70;;;19.50;99.90;;;;;;5015714;28;20050;-55
2024/01/17 08:36:41;;;;;;;15.20;8.27;;;19.50;99.90;;;;;;5015622;28;20060;-54
2024/01/17 08:39:07;;;;;;;15.80;8.23;;;19.50;99.90;;;;;;5015511;28;20033;-54
2024/01/17 08:41:33;;;;;;;13.32;8.57;;;19.50;99.90;;;;;;5015868;28;20026;-54
2024/01/17 08:44:01;;;;;;;18.70;9.30;;;19.50;99.90;;;;;;5015941;28;20037;-54
2024/01/17 08:46:30;;;;;;;15.38;8.48;;;19.50;99.90;;;;;;5015247;28;20022;-54
2024/01/17 08:48:56;;;;;;;17.30;8.75;;;19.50;99.90;;;;;;5015220;28;20116;-54
2024/01/17 08:51:24;;;;;;;14.85;8.80;;;19.50;99.90;;;;;;5015070;28;20153;-54
2024/01/17 08:53:50;;;;;;;16.85;9.68;;;19.50;99.90;;;;;;5015072;28;20034;-54
2024/01/17 08:56:16;;;;;;;15.20;8.43;;;19.50;99.90;;;;;;5013784;28;20036;-54
2024/01/17 08:58:42;;;;;;;18.35;8.85;;;19.50;99.90;;;;;;5015029;28;20030;-55
2024/01/17 09:01:13;;;;;;;14.90;9.25;;;19.50;99.90;;;;;;5015028;28;20490;-55
2024/01/17 09:03:39;;;;;;;16.80;9.18;;;19.50;99.90;;;;;;5014955;28;20480;-55
2024/01/17 09:06:05;;;;;;;17.50;8.38;;;19.50;99.90;;;;;;5014890;28;20022;-54
2024/01/17 09:08:31;;;;;;;18.42;8.98;;;19.50;99.90;;;;;;5013870;28;20084;-55
2024/01/17 09:10:57;;;;;;;12.60;7.28;;;19.50;99.90;;;;;;5014897;28;20018;-55
2024/01/17 09:13:23;;;;;;;14.55;8.20;;;19.50;99.90;;;;;;5014790;28;20613;-55
2024/01/17 09:15:48;;;;;;;15.00;8.82;;;19.50;99.90;;;;;;5014744;28;20381;-55
2024/01/17 09:18:17;;;;;;;17.60;8.38;;;19.50;99.90;;;;;;5014638;28;20088;-55
2024/01/17 09:20:45;;;;;;;22.75;9.57;;;19.50;99.90;;;;;;5014898;28;20025;-54
2024/01/17 09:23:10;;;;;;;15.95;8.63;;;19.50;99.90;;;;;;5014729;28;20028;-55
2024/01/17 09:25:36;;;;;;;17.77;8.90;;;19.50;99.90;;;;;;5014768;28;20492;-55
2024/01/17 09:28:02;;;;;;;17.85;9.73;;;19.50;99.90;;;;;;5014482;28;20034;-54
2024/01/17 09:30:28;;;;;;;17.70;10.55;;;19.60;99.90;;;;;;5014455;28;20127;-54
2024/01/17 09:32:54;;;;;;;21.20;12.20;;;19.60;99.90;;;;;;5014461;28;20058;-54
2024/01/17 09:35:19;;;;;;;18.95;11.32;;;19.60;99.90;;;;;;5014461;28;20022;-54
2024/01/17 09:37:45;;;;;;;20.50;10.40;;;19.60;99.90;;;;;;5014414;28;20029;-54
2024/01/17 09:40:13;;;;;;;18.13;10.73;;;19.60;99.90;;;;;;5014471;28;20022;-54
2024/01/17 09:42:40;;;;;;;21.48;11.00;;;19.60;99.90;;;;;;5014407;28;20029;-54
2024/01/17 09:45:09;;;;;;;22.08;12.80;;;19.60;99.90;;;;;;5013125;28;20390;-55
2024/01/17 09:47:38;;;;;;;29.85;15.18;;;19.70;99.90;;;;;;5014359;28;20088;-53
2024/01/17 09:50:05;;;;;;;33.40;17.10;;;19.70;99.90;;;;;;5014450;28;20022;-55
2024/01/17 09:52:33;;;;;;;33.83;18.33;;;19.80;99.90;;;;;;5014059;28;20492;-54
2024/01/17 09:55:01;;;;;;;28.88;16.80;;;19.80;99.90;;;;;;5013902;28;20049;-54
2024/01/17 09:57:33;;;;;;;30.50;17.38;;;19.90;99.90;;;;;;5013966;28;20433;-54
2024/01/17 10:00:06;;;;;;;31.63;17.55;;;19.90;99.90;;;;;;5013969;28;20481;-54
2024/01/17 10:02:35;;;;;;;33.78;18.77;;;20.00;99.90;;;;;;5013840;28;20069;-56
2024/01/17 10:05:04;;;;;;;33.85;20.30;;;20.00;99.90;;;;;;5007109;28;20026;-55
2024/01/17 10:07:30;;;;;;;38.17;20.83;;;20.00;99.90;;;;;;4995030;28;20026;-55
2024/01/17 10:09:57;;;;;;;37.03;22.08;;;20.10;99.90;;;;;;5010989;28;20018;-54
2024/01/17 10:12:23;;;;;;;43.20;23.55;;;20.10;99.90;;;;;;4999340;28;20028;-54
2024/01/17 10:14:49;;;;;;;37.58;22.30;;;20.20;99.90;;;;;;5013447;28;20026;-54
2024/01/17 10:17:15;;;;;;;36.72;21.80;;;20.20;99.90;;;;;;5013420;28;20022;-54
2024/01/17 10:19:41;;;;;;;42.58;23.08;;;20.30;99.90;;;;;;5012746;28;20477;-54
2024/01/17 10:22:10;;;;;;;42.13;24.58;;;20.30;99.90;;;;;;5012165;28;20064;-54
2024/01/17 10:24:37;;;;;;;45.13;25.70;;;20.30;99.90;;;;;;5013509;28;20527;-53
2024/01/17 10:27:03;;;;;;;43.95;25.55;;;20.40;99.90;;;;;;5013111;28;20053;-55
2024/01/17 10:29:30;;;;;;;39.38;24.13;;;20.40;99.90;;;;;;5012473;28;20034;-54
2024/01/17 10:31:59;;;;;;;42.67;25.80;;;20.50;99.90;;;;;;5012767;28;20029;-54
2024/01/17 10:34:31;;;;;;;43.05;24.90;;;20.50;99.90;;;;;;5012303;28;20037;-54
2024/01/17 10:36:58;;;;;;;46.38;25.65;;;20.50;99.90;;;;;;5013219;28;20033;-55
2024/01/17 10:39:28;;;;;;;45.15;25.60;;;20.50;99.90;;;;;;5013000;28;20045;-54
2024/01/17 10:41:57;;;;;;;45.05;25.25;;;20.60;99.90;;;;;;5013303;28;20163;-54
2024/01/17 10:44:26;;;;;;;45.22;27.13;;;20.60;99.90;;;;;;5013054;28;20025;-54
2024/01/17 10:46:53;;;;;;;41.95;25.55;;;20.60;99.90;;;;;;5012999;28;20025;-55
2024/01/17 10:49:20;;;;;;;46.28;26.63;;;20.60;99.90;;;;;;5013040;28;20087;-54
2024/01/17 10:51:56;;;;;;;40.63;25.20;;;20.60;99.90;;;;;;5013037;28;20485;-54
2024/01/17 10:54:27;;;;;;;46.97;28.02;;;20.60;99.90;;;;;;5013024;28;20371;-54
2024/01/17 10:56:55;;;;;;;46.40;26.60;;;20.70;99.90;;;;;;5012943;28;20026;-55
2024/01/17 10:59:21;;;;;;;46.25;28.08;;;20.70;99.90;;;;;;5012877;28;20021;-57
2024/01/17 11:01:52;;;;;;;44.45;27.05;;;20.70;99.90;;;;;;5012805;28;20426;-54
2024/01/17 11:04:28;;;;;;;47.83;27.08;;;20.70;99.90;;;;;;5012754;28;20029;-55
2024/01/17 11:06:55;;;;;;;47.75;27.25;;;20.80;99.90;;;;;;5012729;28;20383;-54
2024/01/17 11:09:22;;;;;;;43.60;27.52;;;20.80;99.90;;;;;;5012800;28;20029;-54
2024/01/17 11:11:49;;;;;;;44.85;26.52;;;20.80;99.90;;;;;;5012700;28;20030;-54
2024/01/17 11:14:18;;;;;;;45.20;27.20;;;20.80;99.90;;;;;;5012789;28;20029;-54
2024/01/17 11:16:51;;;;;;;43.85;26.83;;;20.80;99.90;;;;;;5012478;28;20070;-55
2024/01/17 11:19:19;;;;;;;45.13;26.70;;;20.90;99.90;;;;;;5012517;28;20022;-54
2024/01/17 11:21:46;;;;;;;45.20;27.17;;;20.80;99.90;;;;;;5012673;28;20053;-54
2024/01/17 11:24:17;;;;;;;48.20;28.15;;;20.90;99.90;;;;;;5012501;28;20040;-54
2024/01/17 11:26:55;;;;;;;45.20;26.58;;;20.90;99.90;;;;;;5011048;28;20382;-54
2024/01/17 11:29:59;;;;;;;44.97;26.10;;;20.90;99.90;;;;;;5012668;28;20091;-53
2024/01/17 11:32:50;;;;;;;44.33;25.65;;;20.90;99.90;;;;;;5010347;28;20028;-55
2024/01/17 11:35:44;;;;;;;48.17;26.13;;;21.00;99.90;;;;;;5011618;28;20038;-55
2024/01/17 11:38:22;;;;;;;41.25;23.92;;;21.00;99.90;;;;;;5009636;28;20069;-55
2024/01/17 11:41:00;;;;;;;46.20;24.35;;;21.00;99.90;;;;;;5012174;28;20033;-56
2024/01/17 11:43:31;;;;;;;55.90;25.50;;;21.00;99.90;;;;;;5012132;28;20022;-54
2024/01/17 11:45:59;;;;;;;52.70;23.48;;;21.00;99.90;;;;;;5011921;28;20116;-52
2024/01/17 11:48:34;;;;;;;55.17;22.75;;;21.00;99.90;;;;;;5012427;28;20084;-53
2024/01/17 11:51:14;;;;;;;43.10;23.40;;;20.90;99.90;;;;;;5011115;28;20172;-53
2024/01/17 11:53:46;;;;;;;41.55;23.15;;;21.00;99.90;;;;;;5012568;28;20021;-52
2024/01/17 11:56:13;;;;;;;51.42;24.52;;;21.00;99.90;;;;;;5012440;28;20529;-53
2024/01/17 11:58:44;;;;;;;45.85;24.70;;;21.00;99.90;;;;;;5012101;28;20026;-53
2024/01/17 12:01:30;;;;;;;45.08;22.88;;;21.00;99.90;;;;;;5012209;28;20038;-52
2024/01/17 12:03:56;;;;;;;46.08;24.25;;;21.00;99.90;;;;;;5000784;28;20036;-53
2024/01/17 12:06:22;;;;;;;44.42;22.95;;;21.10;99.90;;;;;;5011365;28;20117;-53
2024/01/17 12:08:52;;;;;;;40.17;20.58;;;21.10;99.90;;;;;;5012047;28;20398;-55
2024/01/17 12:11:18;;;;;;;38.80;22.52;;;21.00;99.90;;;;;;4994684;28;20049;-55
2024/01/17 12:13:47;;;;;;;44.25;22.17;;;21.10;99.90;;;;;;5010967;28;20435;-49
2024/01/17 12:16:13;;;;;;;41.85;21.77;;;21.10;99.90;;;;;;5011266;28;20021;-50
2024/01/17 12:18:39;;;;;;;41.95;19.88;;;21.10;99.90;;;;;;5012188;28;20445;-49
2024/01/17 12:21:06;;;;;;;34.90;19.48;;;21.10;99.90;;;;;;5010214;28;20084;-55
2024/01/17 12:23:33;;;;;;;41.08;20.02;;;21.10;99.90;;;;;;5010133;28;20410;-53
2024/01/17 12:26:00;;;;;;;35.97;21.77;;;21.10;99.90;;;;;;5011534;28;20058;-54
2024/01/17 12:28:29;;;;;;;37.03;20.95;;;21.10;99.90;;;;;;5011893;28;20455;-51
2024/01/17 12:30:59;;;;;;;37.35;20.50;;;21.10;99.90;;;;;;5010751;28;20022;-64
2024/01/17 12:33:31;;;;;;;46.22;20.92;;;21.10;99.90;;;;;;5011990;28;20437;-55